createdAt,value
2017-10-24T00:00:52.836Z,65.10
2017-10-24T00:01:52.509Z,61.90
2017-10-24T00:02:52.485Z,60.00
2017-10-24T00:03:52.465Z,61.80
2017-10-24T00:04:52.427Z,60.70
2017-10-24T00:05:52.412Z,59.00
2017-10-24T00:06:52.732Z,58.20
2017-10-24T00:07:52.355Z,62.50
2017-10-24T00:08:52.325Z,63.50
2017-10-24T00:09:52.306Z,60.10
2017-10-24T00:10:52.283Z,62.50
2017-10-24T00:11:52.252Z,63.40
2017-10-24T00:12:52.225Z,63.00
2017-10-24T00:13:52.200Z,63.70
2017-10-24T00:14:52.173Z,65.20
2017-10-24T00:15:52.158Z,62.70
2017-10-24T00:16:52.133Z,66.10
2017-10-24T00:17:52.100Z,64.40
2017-10-24T00:18:52.071Z,71.60
2017-10-24T00:19:52.050Z,74.40
2017-10-24T00:20:52.023Z,66.50
2017-10-24T00:21:51.998Z,66.90
2017-10-24T00:22:51.977Z,61.40
2017-10-24T00:23:51.945Z,65.50
2017-10-24T00:24:51.927Z,61.50
2017-10-24T00:25:51.891Z,58.60
2017-10-24T00:26:51.865Z,63.90
2017-10-24T00:27:51.843Z,67.30
2017-10-24T00:28:51.830Z,61.90
2017-10-24T00:29:51.793Z,64.40
2017-10-24T00:30:51.770Z,65.10
2017-10-24T00:31:51.737Z,65.80
2017-10-24T00:32:51.707Z,63.10
2017-10-24T00:33:51.687Z,71.30
2017-10-24T00:34:51.662Z,66.70
2017-10-24T00:35:51.984Z,62.70
2017-10-24T00:36:51.605Z,60.80
2017-10-24T00:37:51.587Z,70.20
2017-10-24T00:38:51.553Z,70.60
2017-10-24T00:39:51.540Z,66.00
2017-10-24T00:40:51.513Z,67.60
2017-10-24T00:41:51.478Z,70.70
2017-10-24T00:42:51.456Z,60.90
2017-10-24T00:43:51.430Z,67.00
2017-10-24T00:44:51.407Z,68.10
2017-10-24T00:45:51.383Z,69.70
2017-10-24T00:46:51.353Z,69.50
2017-10-24T00:47:51.326Z,69.80
2017-10-24T00:48:51.298Z,70.50
2017-10-24T00:49:51.282Z,72.20
2017-10-24T00:50:51.275Z,74.60
2017-10-24T00:51:51.220Z,66.00
2017-10-24T00:52:51.204Z,73.80
2017-10-24T00:53:51.483Z,70.60
2017-10-24T00:54:51.151Z,75.70
2017-10-24T00:55:51.126Z,75.60
2017-10-24T00:56:51.103Z,71.60
2017-10-24T00:57:51.074Z,71.00
2017-10-24T00:58:51.043Z,70.80
2017-10-24T00:59:51.277Z,74.90
2017-10-24T01:00:50.997Z,79.20
2017-10-24T01:01:50.981Z,83.50
2017-10-24T01:02:50.953Z,73.70
2017-10-24T01:03:50.919Z,68.40
2017-10-24T01:04:50.892Z,71.50
2017-10-24T01:05:51.170Z,67.00
2017-10-24T01:06:50.845Z,70.30
2017-10-24T01:07:50.815Z,74.90
2017-10-24T01:08:50.788Z,80.50
2017-10-24T01:09:50.770Z,82.50
2017-10-24T01:10:50.736Z,78.30
2017-10-24T01:11:51.067Z,75.40
2017-10-24T01:12:50.697Z,83.00
2017-10-24T01:13:50.670Z,87.40
2017-10-24T01:14:50.637Z,93.40
2017-10-24T01:15:50.614Z,93.40
2017-10-24T01:16:50.586Z,84.60
2017-10-24T01:17:50.812Z,84.50
2017-10-24T01:18:50.537Z,86.30
2017-10-24T01:19:50.503Z,86.10
2017-10-24T01:20:50.481Z,89.20
2017-10-24T01:21:50.461Z,82.50
2017-10-24T01:22:50.432Z,82.60
2017-10-24T01:23:50.415Z,76.40
2017-10-24T01:24:50.378Z,74.70
2017-10-24T01:25:50.361Z,73.20
2017-10-24T01:26:50.334Z,77.60
2017-10-24T01:27:50.300Z,72.30
2017-10-24T01:28:50.286Z,82.40
2017-10-24T01:29:50.250Z,74.20
2017-10-24T01:30:50.229Z,79.00
2017-10-24T01:31:50.206Z,84.40
2017-10-24T01:32:50.178Z,78.50
2017-10-24T01:33:50.152Z,83.40
2017-10-24T01:34:50.137Z,83.00
2017-10-24T01:35:50.099Z,87.20
2017-10-24T01:36:50.072Z,87.90
2017-10-24T01:37:50.047Z,89.20
2017-10-24T01:38:50.024Z,83.40
2017-10-24T01:39:49.995Z,83.10
2017-10-24T01:40:49.973Z,88.30
2017-10-24T01:41:49.940Z,91.20
2017-10-24T01:42:49.915Z,91.00
2017-10-24T01:43:49.891Z,87.40
2017-10-24T01:44:49.869Z,90.80
2017-10-24T01:45:49.843Z,93.20
2017-10-24T01:46:50.168Z,97.60
2017-10-24T01:47:49.792Z,96.90
2017-10-24T01:48:49.766Z,100.60
2017-10-24T01:49:49.742Z,93.30
2017-10-24T01:50:49.717Z,92.20
2017-10-24T01:51:49.683Z,94.50
2017-10-24T01:52:49.962Z,100.20
2017-10-24T01:53:49.635Z,97.00
2017-10-24T01:54:49.613Z,104.00
2017-10-24T01:55:49.582Z,107.00
2017-10-24T01:56:49.561Z,103.90
2017-10-24T01:57:49.530Z,93.30
2017-10-24T01:58:49.807Z,96.20
2017-10-24T01:59:49.484Z,101.80
2017-10-24T02:00:49.459Z,104.20
2017-10-24T02:01:49.429Z,101.60
2017-10-24T02:02:49.404Z,101.00
2017-10-24T02:03:49.377Z,97.60
2017-10-24T02:04:49.357Z,102.80
2017-10-24T02:05:49.330Z,105.80
2017-10-24T02:06:49.305Z,102.20
2017-10-24T02:07:49.280Z,102.20
2017-10-24T02:08:49.244Z,109.70
2017-10-24T02:09:49.235Z,105.80
2017-10-24T02:10:49.207Z,104.40
2017-10-24T02:11:49.171Z,111.70
2017-10-24T02:12:49.148Z,102.30
2017-10-24T02:13:49.126Z,112.50
2017-10-24T02:14:49.105Z,111.40
2017-10-24T02:15:49.080Z,114.90
2017-10-24T02:16:49.059Z,112.00
2017-10-24T02:17:49.012Z,105.70
2017-10-24T02:18:48.996Z,104.70
2017-10-24T02:19:48.974Z,113.30
2017-10-24T02:20:48.945Z,111.80
2017-10-24T02:21:48.919Z,109.90
2017-10-24T02:22:49.145Z,107.20
2017-10-24T02:23:48.869Z,109.40
2017-10-24T02:24:48.843Z,105.40
2017-10-24T02:25:48.816Z,106.80
2017-10-24T02:26:48.786Z,105.50
2017-10-24T02:27:48.765Z,99.30
2017-10-24T02:28:48.733Z,100.10
2017-10-24T02:29:48.709Z,102.80
2017-10-24T02:30:48.684Z,99.90
2017-10-24T02:31:48.664Z,105.80
2017-10-24T02:32:48.937Z,104.80
2017-10-24T02:33:48.613Z,102.00
2017-10-24T02:34:48.585Z,103.90
2017-10-24T02:35:48.558Z,102.30
2017-10-24T02:36:48.532Z,100.80
2017-10-24T02:37:48.503Z,98.50
2017-10-24T02:38:48.480Z,98.30
2017-10-24T02:39:48.460Z,101.50
2017-10-24T02:40:48.429Z,104.50
2017-10-24T02:41:48.406Z,104.30
2017-10-24T02:42:48.375Z,114.90
2017-10-24T02:43:48.352Z,109.60
2017-10-24T02:44:48.330Z,115.90
2017-10-24T02:45:48.310Z,108.00
2017-10-24T02:46:48.273Z,103.30
2017-10-24T02:47:48.250Z,102.60
2017-10-24T02:48:48.221Z,103.80
2017-10-24T02:49:48.205Z,112.10
2017-10-24T02:50:48.424Z,96.40
2017-10-24T02:51:48.146Z,106.90
2017-10-24T02:52:48.121Z,101.50
2017-10-24T02:53:48.093Z,102.30
2017-10-24T02:54:48.065Z,106.40
2017-10-24T02:55:48.053Z,89.40
2017-10-24T02:56:48.671Z,92.20
2017-10-24T02:57:47.991Z,95.80
2017-10-24T02:58:47.968Z,100.10
2017-10-24T02:59:47.941Z,95.40
2017-10-24T03:00:47.917Z,99.90
2017-10-24T03:01:47.896Z,98.50
2017-10-24T03:02:47.865Z,87.00
2017-10-24T03:03:47.834Z,94.60
2017-10-24T03:04:47.807Z,90.20
2017-10-24T03:05:47.789Z,91.90
2017-10-24T03:06:47.767Z,89.50
2017-10-24T03:07:47.730Z,97.90
2017-10-24T03:08:47.715Z,82.10
2017-10-24T03:09:47.683Z,84.60
2017-10-24T03:10:47.659Z,83.00
2017-10-24T03:11:47.635Z,94.70
2017-10-24T03:12:47.611Z,92.90
2017-10-24T03:13:47.585Z,87.10
2017-10-24T03:14:47.554Z,82.20
2017-10-24T03:15:47.528Z,65.60
2017-10-24T03:16:47.505Z,64.70
2017-10-24T03:17:47.484Z,60.50
2017-10-24T03:18:47.460Z,62.10
2017-10-24T03:19:47.429Z,64.40
2017-10-24T03:20:47.397Z,56.30
2017-10-24T03:21:47.377Z,60.20
2017-10-24T03:22:47.354Z,62.30
2017-10-24T03:23:47.329Z,76.20
2017-10-24T03:24:47.293Z,69.20
2017-10-24T03:25:47.269Z,72.40
2017-10-24T03:26:47.243Z,73.00
2017-10-24T03:27:47.221Z,72.00
2017-10-24T03:28:47.202Z,76.50
2017-10-24T03:29:47.165Z,79.10
2017-10-24T03:30:47.149Z,71.30
2017-10-24T03:31:47.126Z,66.30
2017-10-24T03:32:47.344Z,70.80
2017-10-24T03:33:47.067Z,71.90
2017-10-24T03:34:47.044Z,69.80
2017-10-24T03:35:47.009Z,65.20
2017-10-24T03:36:46.994Z,76.20
2017-10-24T03:37:46.963Z,90.10
2017-10-24T03:38:47.245Z,83.20
2017-10-24T03:39:46.912Z,80.70
2017-10-24T03:40:46.886Z,84.10
2017-10-24T03:41:46.861Z,82.50
2017-10-24T03:42:46.838Z,82.00
2017-10-24T03:43:46.812Z,69.30
2017-10-24T03:44:46.785Z,78.80
2017-10-24T03:45:46.756Z,81.60
2017-10-24T03:46:46.732Z,77.00
2017-10-24T03:47:46.707Z,90.20
2017-10-24T03:48:46.682Z,83.80
2017-10-24T03:49:46.658Z,86.50
2017-10-24T03:50:46.979Z,91.50
2017-10-24T03:51:46.609Z,85.10
2017-10-24T03:52:46.571Z,83.80
2017-10-24T03:53:46.557Z,89.90
2017-10-24T03:54:46.528Z,92.70
2017-10-24T03:55:46.495Z,96.00
2017-10-24T03:56:46.772Z,97.20
2017-10-24T03:57:46.447Z,96.90
2017-10-24T03:58:46.420Z,90.70
2017-10-24T03:59:46.397Z,93.70
2017-10-24T04:00:46.374Z,95.40
2017-10-24T04:01:46.344Z,97.40
2017-10-24T04:02:46.312Z,95.80
2017-10-24T04:03:46.311Z,96.70
2017-10-24T04:04:46.267Z,86.80
2017-10-24T04:05:46.239Z,88.10
2017-10-24T04:06:46.213Z,87.20
2017-10-24T04:07:46.441Z,88.90
2017-10-24T04:08:46.164Z,90.30
2017-10-24T04:09:46.136Z,89.60
2017-10-24T04:10:46.115Z,91.10
2017-10-24T04:11:46.079Z,91.60
2017-10-24T04:12:46.059Z,97.10
2017-10-24T04:13:46.026Z,94.80
2017-10-24T04:14:46.009Z,96.50
2017-10-24T04:15:45.984Z,99.50
2017-10-24T04:16:45.959Z,95.10
2017-10-24T04:17:45.929Z,100.50
2017-10-24T04:18:45.910Z,95.00
2017-10-24T04:19:46.180Z,94.10
2017-10-24T04:20:45.857Z,80.80
2017-10-24T04:21:45.824Z,80.50
2017-10-24T04:22:45.806Z,83.30
2017-10-24T04:23:45.774Z,86.10
2017-10-24T04:24:45.747Z,86.80
2017-10-24T04:25:45.728Z,89.50
2017-10-24T04:26:45.703Z,84.10
2017-10-24T04:27:45.669Z,81.00
2017-10-24T04:28:45.642Z,82.90
2017-10-24T04:29:45.622Z,71.80
2017-10-24T04:30:45.589Z,69.90
2017-10-24T04:31:45.564Z,83.60
2017-10-24T04:32:45.540Z,81.40
2017-10-24T04:33:45.511Z,82.10
2017-10-24T04:34:45.485Z,67.80
2017-10-24T04:35:45.469Z,72.60
2017-10-24T04:36:45.446Z,69.50
2017-10-24T04:37:45.417Z,80.20
2017-10-24T04:38:45.388Z,78.90
2017-10-24T04:39:45.357Z,76.30
2017-10-24T04:40:45.329Z,56.30
2017-10-24T04:41:45.308Z,62.40
2017-10-24T04:42:45.287Z,39.30
2017-10-24T04:43:45.254Z,51.80
2017-10-24T04:44:45.233Z,46.70
2017-10-24T04:45:45.211Z,68.40
2017-10-24T04:46:45.181Z,62.40
2017-10-24T04:47:45.151Z,61.00
2017-10-24T04:48:45.121Z,49.60
2017-10-24T04:49:45.110Z,80.30
2017-10-24T04:50:45.081Z,74.40
2017-10-24T04:51:45.046Z,61.10
2017-10-24T04:52:45.020Z,53.20
2017-10-24T04:53:44.991Z,30.20
2017-10-24T04:54:45.226Z,36.20
2017-10-24T04:55:44.943Z,42.80
2017-10-24T04:56:44.924Z,54.50
2017-10-24T04:57:44.892Z,58.80
2017-10-24T04:58:44.867Z,51.80
2017-10-24T04:59:44.839Z,48.30
2017-10-24T05:00:44.827Z,59.80
2017-10-24T05:01:44.790Z,56.50
2017-10-24T05:02:44.767Z,52.20
2017-10-24T05:03:44.765Z,41.60
2017-10-24T05:04:44.710Z,41.50
2017-10-24T05:05:44.695Z,48.90
2017-10-24T05:06:44.667Z,53.50
2017-10-24T05:07:44.632Z,48.10
2017-10-24T05:08:44.601Z,55.90
2017-10-24T05:09:44.594Z,63.60
2017-10-24T05:10:44.554Z,60.10
2017-10-24T05:11:44.527Z,70.10
2017-10-24T05:12:44.509Z,70.70
2017-10-24T05:13:44.474Z,67.10
2017-10-24T05:14:44.447Z,69.20
2017-10-24T05:15:44.425Z,75.30
2017-10-24T05:16:44.403Z,72.00
2017-10-24T05:17:44.383Z,63.10
2017-10-24T05:18:44.346Z,73.10
2017-10-24T05:19:44.326Z,69.50
2017-10-24T05:20:44.291Z,59.60
2017-10-24T05:21:44.275Z,66.80
2017-10-24T05:22:44.247Z,68.00
2017-10-24T05:23:44.215Z,70.10
2017-10-24T05:24:44.191Z,73.20
2017-10-24T05:25:44.170Z,71.70
2017-10-24T05:26:44.139Z,72.00
2017-10-24T05:27:44.111Z,66.80
2017-10-24T05:28:44.087Z,64.80
2017-10-24T05:29:44.065Z,65.10
2017-10-24T05:30:44.035Z,69.30
2017-10-24T05:31:44.017Z,65.10
2017-10-24T05:32:43.993Z,63.70
2017-10-24T05:33:43.958Z,59.70
2017-10-24T05:34:43.930Z,56.50
2017-10-24T05:35:43.904Z,60.40
2017-10-24T05:36:43.886Z,60.90
2017-10-24T05:37:43.859Z,61.50
2017-10-24T05:38:43.832Z,60.70
2017-10-24T05:39:43.800Z,59.30
2017-10-24T05:40:43.777Z,57.30
2017-10-24T05:41:43.752Z,67.10
2017-10-24T05:42:43.721Z,65.90
2017-10-24T05:43:43.704Z,66.70
2017-10-24T05:44:43.673Z,66.50
2017-10-24T05:45:43.650Z,64.80
2017-10-24T05:46:43.619Z,71.70
2017-10-24T05:47:43.598Z,66.20
2017-10-24T05:48:43.567Z,66.50
2017-10-24T05:49:43.555Z,73.00
2017-10-24T05:50:43.521Z,70.80
2017-10-24T05:51:43.487Z,71.70
2017-10-24T05:52:43.463Z,73.50
2017-10-24T05:53:43.689Z,71.80
2017-10-24T05:54:43.417Z,70.00
2017-10-24T05:55:43.405Z,75.40
2017-10-24T05:56:43.366Z,75.60
2017-10-24T05:57:43.331Z,73.30
2017-10-24T05:58:43.305Z,71.80
2017-10-24T05:59:43.587Z,79.30
2017-10-24T06:00:43.269Z,80.40
2017-10-24T06:01:43.230Z,75.80
2017-10-24T06:02:43.211Z,81.30
2017-10-24T06:03:43.179Z,79.90
2017-10-24T06:04:43.153Z,79.60
2017-10-24T06:05:43.389Z,82.20
2017-10-24T06:06:43.101Z,79.40
2017-10-24T06:07:43.074Z,70.50
2017-10-24T06:08:43.051Z,75.70
2017-10-24T06:09:43.028Z,75.10
2017-10-24T06:10:43.003Z,69.80
2017-10-24T06:11:42.971Z,78.30
2017-10-24T06:12:42.952Z,74.80
2017-10-24T06:13:42.925Z,85.00
2017-10-24T06:14:42.898Z,81.00
2017-10-24T06:15:42.869Z,80.60
2017-10-24T06:16:42.846Z,70.10
2017-10-24T06:17:42.813Z,71.60
2017-10-24T06:18:42.797Z,70.30
2017-10-24T06:19:42.776Z,63.40
2017-10-24T06:20:42.738Z,61.10
2017-10-24T06:21:42.714Z,64.90
2017-10-24T06:22:42.690Z,67.80
2017-10-24T06:23:42.666Z,67.20
2017-10-24T06:24:42.639Z,69.80
2017-10-24T06:25:42.614Z,77.30
2017-10-24T06:26:42.586Z,80.00
2017-10-24T06:27:42.562Z,87.90
2017-10-24T06:28:42.526Z,82.00
2017-10-24T06:29:42.504Z,93.10
2017-10-24T06:30:42.478Z,100.20
2017-10-24T06:31:42.461Z,97.00
2017-10-24T06:32:42.432Z,89.50
2017-10-24T06:33:42.398Z,104.70
2017-10-24T06:34:42.378Z,95.30
2017-10-24T06:35:42.355Z,86.70
2017-10-24T06:36:42.342Z,84.80
2017-10-24T06:37:42.301Z,90.80
2017-10-24T06:38:42.283Z,79.10
2017-10-24T06:39:42.249Z,72.80
2017-10-24T06:40:42.221Z,77.00
2017-10-24T06:41:42.200Z,78.40
2017-10-24T06:42:42.170Z,69.60
2017-10-24T06:43:42.147Z,77.10
2017-10-24T06:44:42.120Z,75.70
2017-10-24T06:45:42.113Z,78.60
2017-10-24T06:46:42.073Z,90.50
2017-10-24T06:47:42.056Z,98.70
2017-10-24T06:48:42.027Z,106.20
2017-10-24T06:49:41.997Z,104.60
2017-10-24T06:50:41.968Z,95.30
2017-10-24T06:51:41.954Z,102.40
2017-10-24T06:52:42.164Z,106.00
2017-10-24T06:53:41.886Z,89.10
2017-10-24T06:54:41.864Z,81.80
2017-10-24T06:55:41.843Z,81.50
2017-10-24T06:56:41.811Z,81.10
2017-10-24T06:57:41.783Z,78.30
2017-10-24T06:58:42.108Z,85.80
2017-10-24T06:59:41.739Z,83.40
2017-10-24T07:00:41.718Z,86.20
2017-10-24T07:01:41.692Z,82.40
2017-10-24T07:02:41.663Z,89.00
2017-10-24T07:03:41.669Z,84.70
2017-10-24T07:04:41.954Z,87.20
2017-10-24T07:05:41.635Z,80.40
2017-10-24T07:06:41.571Z,80.50
2017-10-24T07:07:41.538Z,77.50
2017-10-24T07:08:41.504Z,90.30
2017-10-24T07:09:41.478Z,80.70
2017-10-24T07:10:41.450Z,92.20
2017-10-24T07:11:41.436Z,91.40
2017-10-24T07:12:41.408Z,91.60
2017-10-24T07:13:41.387Z,92.10
2017-10-24T07:14:41.354Z,84.90
2017-10-24T07:15:41.339Z,85.20
2017-10-24T07:16:41.304Z,90.90
2017-10-24T07:17:41.288Z,76.30
2017-10-24T07:18:41.256Z,82.80
2017-10-24T07:19:41.228Z,77.80
2017-10-24T07:20:41.197Z,77.70
2017-10-24T07:21:41.182Z,74.60
2017-10-24T07:22:41.165Z,74.00
2017-10-24T07:23:41.117Z,76.80
2017-10-24T07:24:41.098Z,70.70
2017-10-24T07:25:41.070Z,65.10
2017-10-24T07:26:41.047Z,68.80
2017-10-24T07:27:41.027Z,73.40
2017-10-24T07:28:40.997Z,81.10
2017-10-24T07:29:40.972Z,79.60
2017-10-24T07:30:40.942Z,79.40
2017-10-24T07:31:40.922Z,70.40
2017-10-24T07:32:40.908Z,78.80
2017-10-24T07:33:40.866Z,76.20
2017-10-24T07:34:40.856Z,69.00
2017-10-24T07:35:40.815Z,73.80
2017-10-24T07:36:40.786Z,72.70
2017-10-24T07:37:40.764Z,71.80
2017-10-24T07:38:40.743Z,70.60
2017-10-24T07:39:40.716Z,62.80
2017-10-24T07:40:40.687Z,71.10
2017-10-24T07:41:40.672Z,70.40
2017-10-24T07:42:40.642Z,69.00
2017-10-24T07:43:40.617Z,79.10
2017-10-24T07:44:40.591Z,79.60
2017-10-24T07:45:40.566Z,70.20
2017-10-24T07:46:40.538Z,72.50
2017-10-24T07:47:40.514Z,84.00
2017-10-24T07:48:40.491Z,61.30
2017-10-24T07:49:40.468Z,66.60
2017-10-24T07:50:40.438Z,66.90
2017-10-24T07:51:40.404Z,65.30
2017-10-24T07:52:40.387Z,62.40
2017-10-24T07:53:40.363Z,60.70
2017-10-24T07:54:40.342Z,62.10
2017-10-24T07:55:40.311Z,64.60
2017-10-24T07:56:40.294Z,61.60
2017-10-24T07:57:40.262Z,55.60
2017-10-24T07:58:40.227Z,54.80
2017-10-24T07:59:40.210Z,65.10
2017-10-24T08:00:40.187Z,57.00
2017-10-24T08:01:40.153Z,55.30
2017-10-24T08:02:40.132Z,49.10
2017-10-24T08:03:40.110Z,51.80
2017-10-24T08:04:40.086Z,59.20
2017-10-24T08:05:40.061Z,57.70
2017-10-24T08:06:40.032Z,49.50
2017-10-24T08:07:40.013Z,52.50
2017-10-24T08:08:39.977Z,46.60
2017-10-24T08:09:39.957Z,47.90
2017-10-24T08:10:39.933Z,50.20
2017-10-24T08:11:39.906Z,47.40
2017-10-24T08:12:39.880Z,47.70
2017-10-24T08:13:39.857Z,43.40
2017-10-24T08:14:39.832Z,45.20
2017-10-24T08:15:39.808Z,41.60
2017-10-24T08:16:39.792Z,46.60
2017-10-24T08:17:39.755Z,43.50
2017-10-24T08:18:39.738Z,51.10
2017-10-24T08:19:39.708Z,44.60
2017-10-24T08:20:39.689Z,43.10
2017-10-24T08:21:39.662Z,48.30
2017-10-24T08:22:39.631Z,44.00
2017-10-24T08:23:39.602Z,48.40
2017-10-24T08:24:39.581Z,48.40
2017-10-24T08:25:39.559Z,52.30
2017-10-24T08:26:39.536Z,46.10
2017-10-24T08:27:39.506Z,50.40
2017-10-24T08:28:39.505Z,50.80
2017-10-24T08:29:39.456Z,46.40
2017-10-24T08:30:39.436Z,56.10
2017-10-24T08:31:39.415Z,51.70
2017-10-24T08:32:39.386Z,52.90
2017-10-24T08:33:39.352Z,54.60
2017-10-24T08:34:39.334Z,53.60
2017-10-24T08:35:39.317Z,51.40
2017-10-24T08:36:39.283Z,59.60
2017-10-24T08:37:39.261Z,50.70
2017-10-24T08:38:39.238Z,58.80
2017-10-24T08:39:39.215Z,60.10
2017-10-24T08:40:39.176Z,56.00
2017-10-24T08:41:39.154Z,56.10
2017-10-24T08:42:39.132Z,58.80
2017-10-24T08:43:39.102Z,52.50
2017-10-24T08:44:39.335Z,53.70
2017-10-24T08:45:39.053Z,56.00
2017-10-24T08:46:39.025Z,53.50
2017-10-24T08:47:39.008Z,56.80
2017-10-24T08:48:38.992Z,50.70
2017-10-24T08:49:38.952Z,56.50
2017-10-24T08:50:38.941Z,57.00
2017-10-24T08:51:38.902Z,53.70
2017-10-24T08:52:38.879Z,61.40
2017-10-24T08:53:38.855Z,53.70
2017-10-24T08:54:38.836Z,55.00
2017-10-24T08:55:38.804Z,52.20
2017-10-24T08:56:38.783Z,58.00
2017-10-24T08:57:38.761Z,59.50
2017-10-24T08:58:38.729Z,53.60
2017-10-24T08:59:38.705Z,54.00
2017-10-24T09:00:38.682Z,58.40
2017-10-24T09:01:38.662Z,52.90
2017-10-24T09:02:38.634Z,63.50
2017-10-24T09:03:38.608Z,55.90
2017-10-24T09:04:38.582Z,59.00
2017-10-24T09:05:38.564Z,57.90
2017-10-24T09:06:38.544Z,64.20
2017-10-24T09:07:38.814Z,60.00
2017-10-24T09:08:38.478Z,53.70
2017-10-24T09:09:38.454Z,60.60
2017-10-24T09:10:38.439Z,61.30
2017-10-24T09:11:38.411Z,66.50
2017-10-24T09:12:38.384Z,57.40
2017-10-24T09:13:38.363Z,64.20
2017-10-24T09:14:38.342Z,66.80
2017-10-24T09:15:38.320Z,60.30
2017-10-24T09:16:38.286Z,63.10
2017-10-24T09:17:38.264Z,69.90
2017-10-24T09:18:38.238Z,65.40
2017-10-24T09:19:38.461Z,67.70
2017-10-24T09:20:38.210Z,61.10
2017-10-24T09:21:38.174Z,66.30
2017-10-24T09:22:38.139Z,66.70
2017-10-24T09:23:38.113Z,63.70
2017-10-24T09:24:38.088Z,67.30
2017-10-24T09:25:38.070Z,66.50
2017-10-24T09:26:38.040Z,66.30
2017-10-24T09:27:38.021Z,63.30
2017-10-24T09:28:37.991Z,72.40
2017-10-24T09:29:37.970Z,63.60
2017-10-24T09:30:37.942Z,68.70
2017-10-24T09:31:37.917Z,68.50
2017-10-24T09:32:37.891Z,76.40
2017-10-24T09:33:37.871Z,79.80
2017-10-24T09:34:37.846Z,79.10
2017-10-24T09:35:37.823Z,67.90
2017-10-24T09:36:37.789Z,76.40
2017-10-24T09:37:37.774Z,75.50
2017-10-24T09:38:37.753Z,72.40
2017-10-24T09:39:37.717Z,78.50
2017-10-24T09:40:37.693Z,77.00
2017-10-24T09:41:37.672Z,74.00
2017-10-24T09:42:37.647Z,77.60
2017-10-24T09:43:37.621Z,76.40
2017-10-24T09:44:37.596Z,76.10
2017-10-24T09:45:37.578Z,74.40
2017-10-24T09:46:37.545Z,79.10
2017-10-24T09:47:37.522Z,72.30
2017-10-24T09:48:37.750Z,74.30
2017-10-24T09:49:37.473Z,79.10
2017-10-24T09:50:37.454Z,73.70
2017-10-24T09:51:37.424Z,80.60
2017-10-24T09:52:37.393Z,74.60
2017-10-24T09:53:37.376Z,84.90
2017-10-24T09:54:37.603Z,76.70
2017-10-24T09:55:37.319Z,81.80
2017-10-24T09:56:37.301Z,89.60
2017-10-24T09:57:37.275Z,87.80
2017-10-24T09:58:37.244Z,82.20
2017-10-24T09:59:37.241Z,76.70
2017-10-24T10:00:37.198Z,95.10
2017-10-24T10:01:37.175Z,104.30
2017-10-24T10:02:37.149Z,106.00
2017-10-24T10:03:37.126Z,113.00
2017-10-24T10:04:37.101Z,108.60
2017-10-24T10:05:37.090Z,124.30
2017-10-24T10:06:37.054Z,124.40
2017-10-24T10:07:37.020Z,119.50
2017-10-24T10:08:37.002Z,126.40
2017-10-24T10:09:36.977Z,118.20
2017-10-24T10:10:36.951Z,116.70
2017-10-24T10:11:36.932Z,130.30
2017-10-24T10:12:37.202Z,132.30
2017-10-24T10:13:36.872Z,124.20
2017-10-24T10:14:36.850Z,141.90
2017-10-24T10:15:36.836Z,133.70
2017-10-24T10:16:36.804Z,129.40
2017-10-24T10:17:36.775Z,135.00
2017-10-24T10:18:36.748Z,143.40
2017-10-24T10:19:36.724Z,149.90
2017-10-24T10:20:36.702Z,149.80
2017-10-24T10:21:36.677Z,138.40
2017-10-24T10:22:36.657Z,141.60
2017-10-24T10:23:36.631Z,153.60
2017-10-24T10:24:36.598Z,137.00
2017-10-24T10:25:36.581Z,147.70
2017-10-24T10:26:36.560Z,158.00
2017-10-24T10:27:36.521Z,155.00
2017-10-24T10:28:36.498Z,139.20
2017-10-24T10:29:36.473Z,142.80
2017-10-24T10:30:36.457Z,145.20
2017-10-24T10:31:36.426Z,138.30
2017-10-24T10:32:36.402Z,144.90
2017-10-24T10:33:36.374Z,142.90
2017-10-24T10:34:36.348Z,142.20
2017-10-24T10:35:36.330Z,129.60
2017-10-24T10:36:36.303Z,133.30
2017-10-24T10:37:36.282Z,135.30
2017-10-24T10:38:36.254Z,143.00
2017-10-24T10:39:36.229Z,142.80
2017-10-24T10:40:36.201Z,158.90
2017-10-24T10:41:36.176Z,158.50
2017-10-24T10:42:36.158Z,167.30
2017-10-24T10:43:36.130Z,163.20
2017-10-24T10:44:36.099Z,178.20
2017-10-24T10:45:36.078Z,170.80
2017-10-24T10:46:36.066Z,166.10
2017-10-24T10:47:36.039Z,159.70
2017-10-24T10:48:36.259Z,169.50
2017-10-24T10:49:35.973Z,179.10
2017-10-24T10:50:35.950Z,164.00
2017-10-24T10:51:35.931Z,165.30
2017-10-24T10:52:35.912Z,172.90
2017-10-24T10:53:35.885Z,158.50
2017-10-24T10:54:35.858Z,177.10
2017-10-24T10:55:35.840Z,187.00
2017-10-24T10:56:35.805Z,201.70
2017-10-24T10:57:35.793Z,186.70
2017-10-24T10:58:35.755Z,184.40
2017-10-24T10:59:35.726Z,174.30
2017-10-24T11:00:35.702Z,188.40
2017-10-24T11:01:35.698Z,191.40
2017-10-24T11:02:35.655Z,191.20
2017-10-24T11:03:35.629Z,178.70
2017-10-24T11:04:35.611Z,174.60
2017-10-24T11:05:35.580Z,170.60
2017-10-24T11:06:35.560Z,160.50
2017-10-24T11:07:35.530Z,164.30
2017-10-24T11:08:35.503Z,181.50
2017-10-24T11:09:35.481Z,176.10
2017-10-24T11:10:35.452Z,170.50
2017-10-24T11:11:35.440Z,170.00
2017-10-24T11:12:35.418Z,183.50
2017-10-24T11:13:35.380Z,182.90
2017-10-24T11:14:35.354Z,180.80
2017-10-24T11:15:35.333Z,175.30
2017-10-24T11:16:35.312Z,180.30
2017-10-24T11:17:35.285Z,179.90
2017-10-24T11:18:35.266Z,183.80
2017-10-24T11:19:35.238Z,173.90
2017-10-24T11:20:35.210Z,172.00
2017-10-24T11:21:35.190Z,176.90
2017-10-24T11:22:35.166Z,180.10
2017-10-24T11:23:35.384Z,177.70
2017-10-24T11:24:35.106Z,178.90
2017-10-24T11:25:35.080Z,170.30
2017-10-24T11:26:35.059Z,171.30
2017-10-24T11:27:35.039Z,169.90
2017-10-24T11:28:35.018Z,184.50
2017-10-24T11:29:34.983Z,189.50
2017-10-24T11:30:34.963Z,192.90
2017-10-24T11:31:34.937Z,169.80
2017-10-24T11:32:34.915Z,176.90
2017-10-24T11:33:34.889Z,177.80
2017-10-24T11:34:34.858Z,166.50
2017-10-24T11:35:34.847Z,183.40
2017-10-24T11:36:34.820Z,162.80
2017-10-24T11:37:34.797Z,160.10
2017-10-24T11:38:34.763Z,166.90
2017-10-24T11:39:34.739Z,150.60
2017-10-24T11:40:34.712Z,161.90
2017-10-24T11:41:35.012Z,150.10
2017-10-24T11:42:34.661Z,137.00
2017-10-24T11:43:34.640Z,136.10
2017-10-24T11:44:34.619Z,147.30
2017-10-24T11:45:34.589Z,141.80
2017-10-24T11:46:34.568Z,143.30
2017-10-24T11:47:34.535Z,129.90
2017-10-24T11:48:34.514Z,142.60
2017-10-24T11:49:34.493Z,140.30
2017-10-24T11:50:34.466Z,144.30
2017-10-24T11:51:34.440Z,139.70
2017-10-24T11:52:34.420Z,143.30
2017-10-24T11:53:34.399Z,148.10
2017-10-24T11:54:34.364Z,147.90
2017-10-24T11:55:34.338Z,136.70
2017-10-24T11:56:34.315Z,140.80
2017-10-24T11:57:34.289Z,138.10
2017-10-24T11:58:34.514Z,152.30
2017-10-24T11:59:34.246Z,138.20
2017-10-24T12:00:34.215Z,141.90
2017-10-24T12:01:34.186Z,142.10
2017-10-24T12:02:34.168Z,133.30
2017-10-24T12:03:34.144Z,128.20
2017-10-24T12:04:34.119Z,108.90
2017-10-24T12:05:34.096Z,117.90
2017-10-24T12:06:34.066Z,117.10
2017-10-24T12:07:34.043Z,96.60
2017-10-24T12:08:34.017Z,100.60
2017-10-24T12:09:33.996Z,98.30
2017-10-24T12:10:33.970Z,104.60
2017-10-24T12:11:33.942Z,104.60
2017-10-24T12:12:33.939Z,102.90
2017-10-24T12:13:33.896Z,106.20
2017-10-24T12:14:33.865Z,91.10
2017-10-24T12:15:33.847Z,97.80
2017-10-24T12:16:33.824Z,94.20
2017-10-24T12:17:33.796Z,94.30
2017-10-24T12:18:33.772Z,97.90
2017-10-24T12:19:33.753Z,96.00
2017-10-24T12:20:33.720Z,94.30
2017-10-24T12:21:33.699Z,109.70
2017-10-24T12:22:33.672Z,97.60
2017-10-24T12:23:33.645Z,97.60
2017-10-24T12:24:33.619Z,92.00
2017-10-24T12:25:33.596Z,81.40
2017-10-24T12:26:33.567Z,89.30
2017-10-24T12:27:33.539Z,87.10
2017-10-24T12:28:33.514Z,75.10
2017-10-24T12:29:33.497Z,88.00
2017-10-24T12:30:33.471Z,86.80
2017-10-24T12:31:33.451Z,92.90
2017-10-24T12:32:33.428Z,101.80
2017-10-24T12:33:33.388Z,101.80
2017-10-24T12:34:33.368Z,97.70
2017-10-24T12:35:33.354Z,95.20
2017-10-24T12:36:33.324Z,88.70
2017-10-24T12:37:33.297Z,88.80
2017-10-24T12:38:33.270Z,86.60
2017-10-24T12:39:33.245Z,76.70
2017-10-24T12:40:33.221Z,90.10
2017-10-24T12:41:33.197Z,76.40
2017-10-24T12:42:33.180Z,79.00
2017-10-24T12:43:33.150Z,80.20
2017-10-24T12:44:33.119Z,78.40
2017-10-24T12:45:33.396Z,80.60
2017-10-24T12:46:33.064Z,73.80